Time;durP1;ratioP1;P1;durP2;ratioP2;P2;SDS_P1;SDS_P2;PMS_P1;PMS_P2;Temp;Humidity;BMP_temperature;BMP_pressure;BME280_temperature;BME280_humidity;BME280_pressure;Samples;Min_cycle;Max_cycle;Signal;HPM_P1;HPM_P2
2023/05/03 00:07:20;;;;;;;9.90;6.30;;;;;;;11.36;65.43;101128.16;128819;1276;116407;-71
2023/05/03 00:11:10;;;;;;;17.70;6.10;;;;;;;11.29;64.83;101128.11;127330;1283;114954;-71
2023/05/03 00:15:03;;;;;;;13.80;5.50;;;;;;;11.20;64.53;101127.17;127230;1285;114865;-71
2023/05/03 00:18:22;;;;;;;13.50;5.10;;;;;;;11.12;64.43;101129.09;126690;1290;114868;-70
2023/05/03 00:21:31;;;;;;;11.10;5.40;;;;;;;11.06;64.42;101130.40;126686;1291;128029;-71
2023/05/03 00:25:24;;;;;;;;;;;;;;;;;;;;;
2023/05/03 00:29:26;;;;;;;13.60;5.70;;;;;;;10.98;64.44;101131.08;126560;1295;114915;-71
2023/05/03 00:33:28;;;;;;;10.00;3.90;;;;;;;10.95;64.83;101131.88;125661;1303;114975;-71
2023/05/03 00:41:41;;;;;;;13.60;5.70;;;;;;;10.88;64.68;101141.98;126135;1294;637049;-71
2023/05/03 00:45:37;;;;;;;11.60;5.00;;;;;;;10.82;64.52;101144.70;128529;1278;128680;-70
2023/05/03 00:49:40;;;;;;;14.90;5.40;;;;;;;10.78;64.58;101148.96;127679;1280;115415;-72
2023/05/03 00:53:36;;;;;;;10.10;5.00;;;;;;;10.73;64.05;101152.19;122586;1296;5438030;-71
2023/05/03 00:57:30;;;;;;;11.70;4.30;;;;;;;10.69;64.03;101149.63;125544;1314;114957;-72
2023/05/03 01:01:30;;;;;;;;;;;;;;;;;;;;;
2023/05/03 01:05:24;;;;;;;;;;;;;;;;;;;;;
2023/05/03 01:09:47;;;;;;;;;;;;;;;;;;;;;
2023/05/03 01:13:52;;;;;;;11.90;4.70;;;;;;;10.56;64.29;101157.61;129360;1282;128662;-71
2023/05/03 01:17:55;;;;;;;12.00;4.90;;;;;;;10.52;64.10;101155.41;129250;1270;115236;-71
2023/05/03 01:21:54;;;;;;;;;;;;;;;;;;;;;
2023/05/03 01:25:58;;;;;;;14.90;5.00;;;;;;;10.46;64.00;101166.86;127714;1286;114836;-71
2023/05/03 01:29:59;;;;;;;19.30;5.50;;;;;;;10.47;64.45;101170.23;127206;1299;114851;-71
2023/05/03 01:34:03;;;;;;;;;;;;;;;;;;;;;
2023/05/03 01:38:08;;;;;;;15.70;4.80;;;;;;;10.45;64.38;101171.02;126217;1293;115332;-70
2023/05/03 01:42:09;;;;;;;14.80;4.90;;;;;;;10.43;64.13;101175.41;126343;1299;114961;-70
2023/05/03 01:46:12;;;;;;;11.00;4.70;;;;;;;10.39;64.21;101179.98;125772;1321;114992;-71
2023/05/03 01:49:54;;;;;;;15.00;5.70;;;;;;;10.36;64.46;101183.25;124725;1330;114762;-70
2023/05/03 01:57:48;;;;;;;11.20;5.00;;;;;;;10.36;64.31;101187.73;126721;1293;636013;-70
2023/05/03 02:01:43;;;;;;;17.40;5.50;;;;;;;10.32;63.88;101190.73;129513;1269;128603;-71
2023/05/03 02:05:37;;;;;;;;;;;;;;;;;;;;;
2023/05/03 02:09:41;;;;;;;13.80;5.40;;;;;;;10.27;64.24;101197.14;127919;1299;115011;-71
2023/05/03 02:13:45;;;;;;;11.70;5.00;;;;;;;10.25;64.41;101196.15;122998;1309;115108;-70
2023/05/03 02:17:48;;;;;;;11.10;4.60;;;;;;;10.24;64.60;101197.98;125500;1307;115250;-69
2023/05/03 02:21:40;;;;;;;;;;;;;;;;;;;;;
2023/05/03 02:26:07;;;;;;;12.80;4.90;;;;;;;10.17;64.23;101197.30;126130;1294;636635;-71
2023/05/03 02:30:07;;;;;;;;;;;;;;;;;;;;;
2023/05/03 02:34:01;;;;;;;;;;;;;;;;;;;;;
2023/05/03 02:38:05;;;;;;;7.10;4.00;;;;;;;9.95;63.62;101201.25;123274;1290;5431153;-71
2023/05/03 02:42:08;;;;;;;11.20;4.50;;;;;;;9.87;63.41;101196.30;127044;1290;114963;-72
2023/05/03 02:46:08;;;;;;;9.10;4.30;;;;;;;9.77;63.46;101207.67;126492;1296;114970;-71
2023/05/03 02:50:02;;;;;;;12.60;4.20;;;;;;;9.69;63.41;101207.73;125447;1308;116644;-71
2023/05/03 02:54:02;;;;;;;9.80;4.60;;;;;;;9.59;63.65;101213.95;124312;1313;129798;-71
2023/05/03 03:02:20;;;;;;;8.00;4.40;;;;;;;9.37;63.21;101217.66;125846;1298;639457;-70
2023/05/03 03:06:24;;;;;;;8.60;4.40;;;;;;;9.20;63.18;101220.80;128163;1281;127609;-71
2023/05/03 03:10:26;;;;;;;13.10;5.60;;;;;;;9.03;63.27;101223.98;126567;1292;115230;-72
2023/05/03 03:22:46;;;;;;;10.00;4.90;;;;;;;8.56;63.99;101234.48;125573;1299;638677;-72
2023/05/03 03:26:46;;;;;;;10.60;5.00;;;;;;;8.42;64.06;101239.11;128698;1279;128897;-69
2023/05/03 03:30:49;;;;;;;12.20;5.40;;;;;;;8.30;64.46;101239.75;128330;1279;115414;-71
2023/05/03 03:34:52;;;;;;;16.50;5.80;;;;;;;8.21;64.71;101237.66;124024;1283;5448022;-71
2023/05/03 03:38:55;;;;;;;11.30;6.00;;;;;;;8.14;64.50;101240.86;126668;1312;114956;-71
2023/05/03 03:42:49;;;;;;;;;;;;;;;;;;;;;
2023/05/03 03:46:32;;;;;;;;;;;;;;;;;;;;;
2023/05/03 03:50:26;;;;;;;;;;;;;;;;;;;;;
2023/05/03 03:54:53;;;;;;;11.30;5.20;;;;;;;8.02;65.65;101250.21;125979;1302;637235;-71
2023/05/03 03:58:46;;;;;;;;;;;;;;;;;;;;;
2023/05/03 04:02:55;;;;;;;;;;;;;;;;;;;;;
2023/05/03 04:06:58;;;;;;;17.10;7.00;;;;;;;7.85;65.55;101257.55;122050;1313;5510266;-70
2023/05/03 04:10:37;;;;;;;14.80;7.00;;;;;;;7.83;65.92;101257.59;125099;1330;114978;-70
2023/05/03 04:14:38;;;;;;;;;;;;;;;;;;;;;
2023/05/03 04:18:59;;;;;;;13.30;6.60;;;;;;;7.87;66.14;101271.73;126639;1304;636134;-71
2023/05/03 04:22:59;;;;;;;;;;;;;;;;;;;;;
2023/05/03 04:26:54;;;;;;;;;;;;;;;;;;;;;
2023/05/03 04:31:00;;;;;;;15.00;7.30;;;;;;;7.94;66.20;101281.17;120550;1296;7548138;-70
2023/05/03 04:35:01;;;;;;;13.40;5.80;;;;;;;7.97;66.06;101289.45;125755;1305;114906;-71
2023/05/03 04:47:22;;;;;;;;;;;;;;;;;;;;;
2023/05/03 04:51:16;;;;;;;13.80;6.00;;;;;;;8.36;66.39;101302.80;127207;1289;114923;-71
2023/05/03 04:55:17;;;;;;;;;;;;;;;;;;;;;
2023/05/03 04:59:01;;;;;;;;;;;;;;;;;;;;;
2023/05/03 05:02:43;;;;;;;14.40;5.00;;;;;;;11.55;64.93;101305.25;124916;1322;115001;-70
2023/05/03 05:06:24;;;;;;;11.00;4.20;;;;;;;12.47;63.91;101304.55;124925;1311;129919;-71
2023/05/03 05:10:25;;;;;;;;;;;;;;;;;;;;;
2023/05/03 05:14:20;;;;;;;;;;;;;;;;;;;;;
2023/05/03 05:19:12;;;;;;;11.50;4.80;;;;;;;14.78;59.78;101300.29;125624;1305;651082;-71
2023/05/03 05:23:13;;;;;;;13.40;4.90;;;;;;;14.49;58.70;101308.21;127784;1282;127978;-72
2023/05/03 05:27:08;;;;;;;10.90;4.20;;;;;;;14.10;58.31;101316.20;126978;1294;115369;-71
2023/05/03 05:31:03;;;;;;;16.00;5.10;;;;;;;13.74;58.14;101324.52;122684;1287;5447618;-71
2023/05/03 05:35:01;;;;;;;;;;;;;;;;;;;;;
2023/05/03 05:39:04;;;;;;;14.90;6.70;;;;;;;13.17;57.87;101325.10;125811;1296;115077;-72
2023/05/03 05:43:05;;;;;;;16.20;8.30;;;;;;;12.96;58.13;101326.34;125491;1306;114991;-71
2023/05/03 05:51:42;;;;;;;12.50;6.50;;;;;;;12.58;57.96;101330.98;125828;1303;638733;-71
2023/05/03 05:55:43;;;;;;;15.20;7.20;;;;;;;12.52;58.41;101338.77;127261;1290;128785;-71
2023/05/03 05:59:44;;;;;;;18.80;8.10;;;;;;;12.74;59.02;101345.91;125647;1298;115456;-71
2023/05/03 06:08:05;;;;;;;11.00;5.60;;;;;;;13.33;57.92;101355.61;126628;1295;635713;-70
2023/05/03 06:12:00;;;;;;;;;;;;;;;;;;;;;
2023/05/03 06:16:03;;;;;;;10.50;6.00;;;;;;;14.29;57.38;101363.42;127158;1290;115398;-71
2023/05/03 06:19:57;;;;;;;10.90;4.00;;;;;;;15.13;56.79;101364.70;122440;1294;5452615;-71
2023/05/03 06:23:52;;;;;;;;;;;;;;;;;;;;;
2023/05/03 06:26:59;;;;;;;9.00;4.00;;;;;;;15.91;54.68;101368.91;123940;1331;114891;-73
2023/05/03 06:30:27;;;;;;;15.90;6.30;;;;;;;15.99;54.22;101373.35;123924;1331;114977;-71
2023/05/03 06:34:05;;;;;;;10.50;5.70;;;;;;;16.16;54.15;101377.48;124144;1317;128675;-71
2023/05/03 06:38:25;;;;;;;;;;;;;;;;;;;;;
2023/05/03 06:42:23;;;;;;;25.10;9.70;;;;;;;16.32;53.03;101381.25;127405;1286;128859;-72
2023/05/03 06:46:15;;;;;;;16.40;6.10;;;;;;;16.36;52.83;101376.89;127733;1285;115478;-72
2023/05/03 06:50:12;;;;;;;;;;;;;;;;;;;;;
2023/05/03 06:54:07;;;;;;;;;;;;;;;;;;;;;
2023/05/03 07:02:36;;;;;;;9.10;4.60;;;;;;;16.91;51.34;101379.89;125995;1298;639341;-70
2023/05/03 07:06:29;;;;;;;;;;;;;;;;;;;;;
2023/05/03 07:10:29;;;;;;;8.60;4.00;;;;;;;16.81;50.14;101384.44;127754;1286;115363;-76
2023/05/03 07:14:12;;;;;;;8.80;4.20;;;;;;;16.55;49.87;101383.55;122616;1292;5472652;-75
2023/05/03 07:18:29;;;;;;;;;;;;;;;;;;;;;
2023/05/03 07:22:17;;;;;;;;;;;;;;;;;;;;;
2023/05/03 07:26:17;;;;;;;;;;;;;;;;;;;;;
2023/05/03 07:30:36;;;;;;;5.00;3.10;;;;;;;17.17;48.34;101372.55;125963;1301;638539;-73
2023/05/03 07:34:27;;;;;;;8.50;3.40;;;;;;;17.85;47.28;101365.38;129075;1273;128773;-73
2023/05/03 07:38:17;;;;;;;7.00;2.70;;;;;;;18.55;46.39;101363.41;128401;1278;115241;-73
2023/05/03 07:42:08;;;;;;;4.40;2.50;;;;;;;19.13;45.29;101361.39;128106;1278;114847;-72
2023/05/03 07:46:03;;;;;;;7.50;2.00;;;;;;;19.66;43.38;101363.35;123657;1287;114894;-71
2023/05/03 07:49:56;;;;;;;4.00;1.80;;;;;;;19.63;40.89;101360.81;127095;1289;114955;-72
2023/05/03 07:53:46;;;;;;;6.50;2.60;;;;;;;19.53;40.34;101362.21;126436;1301;114900;-73
2023/05/03 07:57:31;;;;;;;;;;;;;;;;;;;;;
2023/05/03 08:01:34;;;;;;;5.00;2.00;;;;;;;19.93;40.22;101362.70;125059;1309;115384;-73
2023/05/03 08:05:10;;;;;;;;;;;;;;;;;;;;;
2023/05/03 08:09:38;;;;;;;;;;;;;;;;;;;;;
2023/05/03 08:13:32;;;;;;;;;;;;;;;;;;;;;
2023/05/03 08:17:45;;;;;;;5.90;2.30;;;;;;;20.52;37.17;101347.91;126376;1299;636433;-72
2023/05/03 08:21:53;;;;;;;4.30;2.40;;;;;;;20.31;37.71;101357.22;128144;1298;128663;-71
2023/05/03 08:25:44;;;;;;;4.30;2.30;;;;;;;19.99;37.45;101357.39;128147;1289;116605;-61
2023/05/03 08:29:09;;;;;;;;;;;;;;;;;;;;;
2023/05/03 08:32:50;;;;;;;5.00;2.30;;;;;;;19.63;37.64;101364.61;126976;1298;114866;-62
2023/05/03 08:36:45;;;;;;;;;;;;;;;;;;;;;
2023/05/03 08:40:12;;;;;;;4.80;2.30;;;;;;;19.90;37.56;101364.59;125737;1302;127726;-61
2023/05/03 08:44:15;;;;;;;5.40;2.20;;;;;;;19.75;37.21;101367.95;125468;1319;115269;-61
2023/05/03 08:48:03;;;;;;;4.30;2.40;;;;;;;19.70;37.07;101370.11;125122;1323;114935;-60
2023/05/03 08:51:57;;;;;;;;;;;;;;;;;;;;;
2023/05/03 08:59:59;;;;;;;;;;;;;;;;;;;;;
2023/05/03 09:03:47;;;;;;;;;;;;;;;;;;;;;
2023/05/03 09:07:51;;;;;;;5.70;2.70;;;;;;;19.22;37.02;101376.39;128510;1286;115419;-61
2023/05/03 09:11:58;;;;;;;;;;;;;;;;;;;;;
2023/05/03 09:15:46;;;;;;;;;;;;;;;;;;;;;
2023/05/03 09:19:41;;;;;;;;;;;;;;;;;;;;;
2023/05/03 09:23:29;;;;;;;5.90;2.40;;;;;;;18.90;36.09;101381.76;125473;1324;114882;-63
2023/05/03 09:27:21;;;;;;;;;;;;;;;;;;;;;
2023/05/03 09:30:54;;;;;;;3.40;2.50;;;;;;;18.36;36.96;101382.18;125365;1304;115421;-61
2023/05/03 09:34:35;;;;;;;3.80;2.40;;;;;;;18.39;36.88;101380.56;124928;1311;114930;-60
2023/05/03 09:38:19;;;;;;;;;;;;;;;;;;;;;
2023/05/03 09:42:03;;;;;;;;;;;;;;;;;;;;;
2023/05/03 09:45:33;;;;;;;8.80;3.50;;;;;;;17.76;35.88;101382.70;123940;1316;129974;-64
2023/05/03 09:48:48;;;;;;;11.20;3.00;;;;;;;17.53;36.50;101377.65;124735;1324;115307;-62
2023/05/03 09:52:41;;;;;;;7.30;3.00;;;;;;;17.39;36.82;101376.73;125531;1301;114894;-62
2023/05/03 09:56:29;;;;;;;;;;;;;;;;;;;;;
2023/05/03 10:00:27;;;;;;;7.50;3.40;;;;;;;17.37;37.22;101371.94;125282;1315;114908;-61
2023/05/03 10:04:35;;;;;;;;;;;;;;;;;;;;;
2023/05/03 10:08:23;;;;;;;10.90;3.00;;;;;;;17.21;37.02;101367.89;123921;1319;114963;-61
2023/05/03 10:12:15;;;;;;;;;;;;;;;;;;;;;
2023/05/03 10:15:30;;;;;;;8.10;2.90;;;;;;;17.25;37.86;101369.07;123773;1335;114906;-61
2023/05/03 10:19:22;;;;;;;5.80;3.20;;;;;;;17.25;37.41;101371.20;123986;1320;115446;-60
2023/05/03 10:22:38;;;;;;;5.20;2.20;;;;;;;17.10;36.76;101373.92;124499;1328;128638;-62
2023/05/03 10:26:12;;;;;;;7.40;3.30;;;;;;;16.87;37.32;101373.23;125511;1311;115132;-60
2023/05/03 10:30:14;;;;;;;5.90;2.50;;;;;;;16.91;37.42;101372.09;124687;1313;114982;-61
2023/05/03 10:33:38;;;;;;;5.70;2.30;;;;;;;16.99;37.15;101366.61;125353;1309;114886;-60
2023/05/03 10:37:44;;;;;;;9.60;7.70;;;;;;;17.02;37.67;101362.27;125920;1295;115061;-62
2023/05/03 10:41:00;;;;;;;8.90;3.60;;;;;;;17.14;37.21;101367.38;126434;1289;129098;-61
2023/05/03 10:45:07;;;;;;;;;;;;;;;;;;;;;
2023/05/03 10:49:10;;;;;;;;;;;;;;;;;;;;;
2023/05/03 10:53:16;;;;;;;4.30;2.70;;;;;;;16.57;37.00;101360.03;127131;1292;116203;-61
2023/05/03 10:57:28;;;;;;;8.00;3.20;;;;;;;16.53;36.78;101360.58;127663;1281;114906;-62
2023/05/03 11:01:20;;;;;;;8.20;2.80;;;;;;;16.21;36.34;101362.23;127396;1289;128982;-61
2023/05/03 11:05:02;;;;;;;9.20;3.20;;;;;;;15.92;36.41;101357.70;126725;1284;116002;-62
2023/05/03 11:08:58;;;;;;;;;;;;;;;;;;;;;
2023/05/03 11:12:57;;;;;;;;;;;;;;;;;;;;;
2023/05/03 11:16:05;;;;;;;9.20;4.00;;;;;;;15.38;37.97;101357.84;127190;1288;115057;-61
2023/05/03 11:20:02;;;;;;;7.30;3.00;;;;;;;15.51;38.61;101356.81;127566;1282;129327;-61
2023/05/03 11:24:09;;;;;;;15.40;3.00;;;;;;;15.67;37.91;101357.38;126573;1289;116651;-64
2023/05/03 11:27:36;;;;;;;7.20;2.70;;;;;;;15.71;38.05;101355.38;127230;1295;114949;-61
2023/05/03 11:31:13;;;;;;;;;;;;;;;;;;;;;
2023/05/03 11:35:00;;;;;;;8.70;3.50;;;;;;;15.50;37.18;101353.63;126794;1291;114909;-62
2023/05/03 11:38:24;;;;;;;7.70;2.70;;;;;;;15.47;37.58;101352.69;126646;1298;128664;-61
2023/05/03 11:42:28;;;;;;;8.40;2.60;;;;;;;15.57;37.90;101351.46;126349;1302;115346;-61
2023/05/03 11:46:36;;;;;;;7.60;3.00;;;;;;;15.65;37.61;101358.58;125579;1303;115023;-62
2023/05/03 11:50:31;;;;;;;6.90;3.00;;;;;;;15.68;37.71;101354.65;125276;1322;115009;-61
2023/05/03 11:53:57;;;;;;;5.00;2.30;;;;;;;15.72;37.30;101349.55;125005;1322;114949;-60
2023/05/03 11:57:37;;;;;;;6.40;2.40;;;;;;;15.58;36.77;101358.61;125365;1322;128918;-62
2023/05/03 12:01:07;;;;;;;8.10;2.80;;;;;;;15.40;36.80;101349.66;124797;1316;115553;-61
2023/05/03 12:04:47;;;;;;;3.00;2.20;;;;;;;15.33;37.11;101346.96;125230;1300;114980;-60
2023/05/03 12:08:08;;;;;;;;;;;;;;;;;;;;;
2023/05/03 12:11:52;;;;;;;;;;;;;;;;;;;;;
2023/05/03 12:15:11;;;;;;;5.90;3.00;;;;;;;15.44;37.78;101348.89;125708;1313;127964;-62
2023/05/03 12:19:06;;;;;;;7.10;3.40;;;;;;;15.55;37.90;101346.69;126174;1293;115645;-60
2023/05/03 12:22:54;;;;;;;5.20;2.80;;;;;;;15.66;37.80;101343.58;127017;1295;114938;-61
2023/05/03 12:26:41;;;;;;;7.60;3.20;;;;;;;15.69;37.71;101340.01;127556;1289;114856;-62
2023/05/03 12:30:45;;;;;;;8.00;3.10;;;;;;;15.81;38.38;101331.77;127890;1280;114806;-61
2023/05/03 12:34:29;;;;;;;5.60;3.00;;;;;;;16.01;38.45;101332.70;127159;1304;129888;-61
2023/05/03 12:38:26;;;;;;;;;;;;;;;;;;;;;
2023/05/03 12:42:27;;;;;;;4.40;2.70;;;;;;;15.88;37.37;101330.71;126987;1289;114881;-60
2023/05/03 12:46:12;;;;;;;11.80;3.20;;;;;;;15.81;37.47;101324.95;125887;1296;114930;-61
2023/05/03 12:49:46;;;;;;;5.50;3.00;;;;;;;15.82;37.89;101323.28;125240;1323;114931;-60
2023/05/03 12:53:27;;;;;;;7.30;2.90;;;;;;;15.78;37.65;101324.93;125193;1304;129713;-61
2023/05/03 12:57:13;;;;;;;8.00;3.10;;;;;;;15.69;37.53;101320.73;124334;1329;115338;-61
2023/05/03 13:01:18;;;;;;;5.30;2.50;;;;;;;15.51;36.79;101321.55;126485;1295;635940;-62
2023/05/03 13:05:12;;;;;;;5.30;2.80;;;;;;;15.19;37.14;101320.70;127386;1301;128845;-60
2023/05/03 13:08:59;;;;;;;;;;;;;;;;;;;;;
2023/05/03 13:12:48;;;;;;;9.40;2.90;;;;;;;15.00;37.22;101322.04;126503;1293;114914;-60
2023/05/03 13:16:08;;;;;;;4.90;2.40;;;;;;;14.92;37.55;101317.77;122612;1295;114913;-60
2023/05/03 13:19:15;;;;;;;7.60;3.40;;;;;;;14.92;37.80;101306.61;126317;1313;114871;-60
2023/05/03 13:22:48;;;;;;;7.70;2.80;;;;;;;14.95;37.72;101302.84;126123;1298;114951;-60
2023/05/03 13:26:16;;;;;;;9.50;4.50;;;;;;;15.00;37.73;101303.33;125585;1302;129252;-60
2023/05/03 13:29:28;;;;;;;5.30;2.90;;;;;;;15.08;38.10;101298.63;125733;1298;115535;-66
2023/05/03 13:33:04;;;;;;;5.20;2.50;;;;;;;15.16;37.88;101294.36;125957;1296;114728;-61
2023/05/03 13:36:23;;;;;;;3.80;2.80;;;;;;;15.18;37.78;101296.06;125881;1296;114926;-62
2023/05/03 13:39:26;;;;;;;8.30;2.40;;;;;;;15.15;37.80;101291.00;125893;1301;115215;-61
2023/05/03 13:42:46;;;;;;;4.40;2.30;;;;;;;15.13;37.73;101287.20;127092;1286;128478;-62
2023/05/03 13:46:40;;;;;;;5.30;2.80;;;;;;;15.06;37.49;101280.69;126977;1286;115274;-60
2023/05/03 13:49:48;;;;;;;6.50;2.40;;;;;;;15.04;37.73;101280.10;126600;1287;114830;-65
2023/05/03 13:53:20;;;;;;;8.50;2.90;;;;;;;14.99;37.28;101279.41;127270;1289;114842;-61
2023/05/03 13:56:35;;;;;;;8.10;2.60;;;;;;;14.96;37.54;101277.08;126894;1300;114964;-62
2023/05/03 13:59:47;;;;;;;4.90;2.50;;;;;;;14.99;37.77;101274.42;127079;1288;129056;-66
2023/05/03 14:03:49;;;;;;;5.70;2.40;;;;;;;14.99;37.70;101272.98;127513;1300;115191;-60
2023/05/03 14:07:51;;;;;;;5.50;2.40;;;;;;;15.00;37.83;101271.85;127243;1289;114858;-61
2023/05/03 14:10:54;;;;;;;10.90;3.20;;;;;;;14.95;37.73;101263.27;127575;1285;114955;-63
2023/05/03 14:13:57;;;;;;;5.00;2.40;;;;;;;14.96;37.96;101267.92;127497;1304;114951;-60
2023/05/03 14:18:02;;;;;;;8.10;3.10;;;;;;;14.99;37.84;101266.86;127460;1284;114871;-60
2023/05/03 14:22:04;;;;;;;7.40;2.20;;;;;;;14.96;37.64;101268.48;126324;1295;115270;-61
2023/05/03 14:26:05;;;;;;;7.30;3.10;;;;;;;14.80;37.86;101269.30;125271;1322;114988;-61
2023/05/03 14:34:31;;;;;;;7.40;2.80;;;;;;;14.66;37.95;101266.91;126376;1297;653056;-60
2023/05/03 14:38:26;;;;;;;;;;;;;;;;;;;;;
2023/05/03 14:42:30;;;;;;;7.10;2.60;;;;;;;14.55;38.14;101268.18;127193;1286;115234;-60
2023/05/03 14:46:00;;;;;;;9.50;3.30;;;;;;;14.47;38.09;101270.36;121940;1307;5435946;-60
2023/05/03 14:50:04;;;;;;;9.10;2.90;;;;;;;14.47;38.21;101267.85;125543;1319;114894;-60
2023/05/03 14:53:58;;;;;;;5.20;3.00;;;;;;;14.48;38.31;101267.06;124890;1326;114975;-61
2023/05/03 14:57:53;;;;;;;7.80;3.00;;;;;;;14.45;38.16;101274.79;124041;1332;129097;-61
2023/05/03 15:01:52;;;;;;;8.00;2.90;;;;;;;14.39;38.15;101271.52;123460;1324;115473;-59
2023/05/03 15:09:21;;;;;;;5.00;2.80;;;;;;;14.38;38.22;101266.17;126360;1294;637071;-60
2023/05/03 15:12:35;;;;;;;11.80;3.20;;;;;;;14.39;38.49;101275.09;129281;1267;127991;-66
2023/05/03 15:16:10;;;;;;;9.90;3.80;;;;;;;14.41;38.62;101270.83;128834;1277;115355;-61
2023/05/03 15:20:04;;;;;;;;;;;;;;;;;;;;;
2023/05/03 15:24:08;;;;;;;7.80;3.10;;;;;;;14.30;38.43;101271.23;124096;1280;5455407;-60
2023/05/03 15:27:59;;;;;;;8.60;3.70;;;;;;;14.25;38.48;101275.23;126425;1292;114827;-61
2023/05/03 15:32:04;;;;;;;8.70;4.90;;;;;;;14.23;38.43;101274.98;125756;1317;114974;-59
2023/05/03 15:36:06;;;;;;;8.10;3.80;;;;;;;14.24;39.07;101271.48;125750;1302;129955;-59
2023/05/03 15:40:08;;;;;;;8.60;3.00;;;;;;;14.25;39.10;101268.39;124550;1313;115358;-61
2023/05/03 15:44:08;;;;;;;13.70;4.50;;;;;;;14.23;38.89;101266.52;124559;1308;114989;-60
2023/05/03 15:52:11;;;;;;;;;;;;;;;;;;;;;
2023/05/03 15:56:17;;;;;;;8.00;2.50;;;;;;;14.04;38.67;101273.05;128208;1291;128330;-61
2023/05/03 16:00:09;;;;;;;11.40;3.30;;;;;;;13.98;38.73;101273.50;127664;1287;116383;-60
2023/05/03 16:08:07;;;;;;;11.70;4.10;;;;;;;13.92;39.10;101269.64;121831;1319;114967;-61
2023/05/03 16:11:52;;;;;;;11.80;5.70;;;;;;;13.89;38.94;101266.94;124428;1312;114987;-61
2023/05/03 16:15:54;;;;;;;6.20;3.70;;;;;;;13.87;39.06;101267.74;124729;1309;114957;-60
2023/05/03 16:24:03;;;;;;;6.50;2.90;;;;;;;13.83;39.25;101276.34;126387;1293;636101;-61
2023/05/03 16:28:04;;;;;;;4.90;3.50;;;;;;;13.79;39.04;101279.05;128570;1275;129667;-60
2023/05/03 16:32:04;;;;;;;9.80;4.30;;;;;;;13.73;38.68;101275.19;128363;1277;115243;-60
2023/05/03 16:36:10;;;;;;;5.80;2.60;;;;;;;13.71;38.82;101277.13;126574;1281;5763408;-62
2023/05/03 16:40:12;;;;;;;7.20;2.50;;;;;;;13.68;39.08;101279.02;125927;1306;115061;-65
2023/05/03 16:43:56;;;;;;;4.60;2.70;;;;;;;13.65;38.98;101272.54;124730;1310;130031;-64
2023/05/03 16:47:48;;;;;;;10.10;4.50;;;;;;;13.61;39.31;101271.98;124136;1333;114941;-60
2023/05/03 16:51:39;;;;;;;9.00;3.40;;;;;;;13.60;39.83;101274.21;123342;1339;114938;-62
2023/05/03 16:59:39;;;;;;;9.10;3.50;;;;;;;13.53;39.23;101267.85;126346;1296;635955;-60
2023/05/03 17:03:34;;;;;;;9.10;3.60;;;;;;;13.49;39.58;101265.37;127978;1296;129166;-61
2023/05/03 17:07:21;;;;;;;8.60;3.20;;;;;;;13.44;39.60;101262.73;128575;1278;115244;-61
2023/05/03 17:10:34;;;;;;;13.70;3.40;;;;;;;13.39;39.65;101266.52;127773;1296;114817;-60
2023/05/03 17:14:16;;;;;;;;;;;;;;;;;;;;;
2023/05/03 17:18:12;;;;;;;8.10;3.40;;;;;;;13.25;39.49;101271.64;127871;1300;114768;-61
2023/05/03 17:22:05;;;;;;;5.50;2.30;;;;;;;13.17;39.91;101270.73;127202;1296;128921;-62
2023/05/03 17:26:07;;;;;;;7.50;2.60;;;;;;;13.10;40.07;101271.58;127250;1306;115481;-62
2023/05/03 17:30:12;;;;;;;11.30;3.00;;;;;;;13.02;40.19;101269.95;127324;1296;115125;-60
2023/05/03 17:34:12;;;;;;;7.70;2.80;;;;;;;12.93;40.28;101268.73;126226;1314;115100;-64
2023/05/03 17:38:15;;;;;;;6.60;2.60;;;;;;;12.86;40.27;101267.25;125441;1317;114991;-64
2023/05/03 17:42:16;;;;;;;5.00;2.40;;;;;;;12.78;40.33;101266.85;125308;1303;129961;-61
2023/05/03 17:46:19;;;;;;;5.90;3.30;;;;;;;12.71;40.72;101268.27;124712;1313;115289;-63
2023/05/03 17:54:40;;;;;;;12.50;3.50;;;;;;;12.55;41.08;101273.41;126466;1296;635865;-62
2023/05/03 17:58:20;;;;;;;7.00;3.40;;;;;;;12.42;41.38;101276.46;128123;1281;128753;-65
2023/05/03 18:02:24;;;;;;;9.90;4.20;;;;;;;12.33;41.49;101276.30;127540;1284;114884;-60
2023/05/03 18:10:32;;;;;;;11.10;3.30;;;;;;;12.09;42.63;101276.70;121585;1315;114910;-62
2023/05/03 18:14:32;;;;;;;6.00;3.40;;;;;;;11.96;42.61;101285.97;124526;1323;114902;-61
2023/05/03 18:22:52;;;;;;;;;;;;;;;;;;;;;
2023/05/03 18:26:57;;;;;;;12.60;3.80;;;;;;;11.54;43.95;101290.27;127943;1283;128521;-64
2023/05/03 18:30:45;;;;;;;12.40;4.80;;;;;;;11.36;44.46;101291.27;126530;1293;115422;-62
2023/05/03 18:34:48;;;;;;;;;;;;;;;;;;;;;
2023/05/03 18:38:38;;;;;;;10.30;6.30;;;;;;;10.99;45.46;101297.08;124806;1312;115053;-61
2023/05/03 18:46:37;;;;;;;;;;;;;;;;;;;;;
2023/05/03 18:50:42;;;;;;;20.80;12.50;;;;;;;10.40;46.55;101304.79;128507;1277;128859;-60
2023/05/03 18:54:47;;;;;;;18.90;10.80;;;;;;;10.21;47.03;101308.21;126795;1290;115285;-62
2023/05/03 18:58:52;;;;;;;23.20;13.80;;;;;;;10.01;47.37;101308.48;124268;1314;5435174;-62
2023/05/03 19:02:30;;;;;;;;;;;;;;;;;;;;;
2023/05/03 19:06:32;;;;;;;;;;;;;;;;;;;;;
2023/05/03 19:14:32;;;;;;;;;;;;;;;;;;;;;
2023/05/03 19:18:40;;;;;;;24.00;14.70;;;;;;;9.22;49.72;101321.11;128496;1277;128836;-61
2023/05/03 19:22:41;;;;;;;23.60;15.00;;;;;;;9.07;50.02;101326.33;127400;1283;115384;-60
2023/05/03 19:26:50;;;;;;;22.90;14.10;;;;;;;8.92;49.91;101329.38;124798;1295;5811924;-61
2023/05/03 19:30:52;;;;;;;28.30;14.40;;;;;;;8.78;50.77;101331.51;124446;1324;115001;-62
2023/05/03 19:39:31;;;;;;;;;;;;;;;;;;;;;
2023/05/03 19:43:34;;;;;;;;;;;;;;;;;;;;;
2023/05/03 19:46:46;;;;;;;26.50;15.70;;;;;;;8.32;52.19;101338.32;127117;1297;115310;-61
2023/05/03 19:50:48;;;;;;;;;;;;;;;;;;;;;
2023/05/03 19:54:51;;;;;;;21.30;15.10;;;;;;;8.10;52.88;101340.76;121842;1301;114970;-60
2023/05/03 19:58:54;;;;;;;24.80;15.10;;;;;;;7.97;53.32;101342.46;125268;1317;115064;-60
2023/05/03 20:02:41;;;;;;;23.90;14.80;;;;;;;7.85;53.88;101338.63;124759;1317;114970;-61
2023/05/03 20:10:54;;;;;;;;;;;;;;;;;;;;;
2023/05/03 20:14:46;;;;;;;;;;;;;;;;;;;;;
2023/05/03 20:18:48;;;;;;;;;;;;;;;;;;;;;
2023/05/03 20:23:08;;;;;;;134.50;67.90;;;;;;;7.37;55.23;101333.73;125493;1301;114958;-61
2023/05/03 20:26:42;;;;;;;;;;;;;;;;;;;;;
2023/05/03 20:34:55;;;;;;;;;;;;;;;;;;;;;
2023/05/03 20:38:58;;;;;;;41.80;25.20;;;;;;;7.10;56.70;101323.60;128535;1272;128621;-68
2023/05/03 20:42:51;;;;;;;44.30;25.80;;;;;;;7.01;56.78;101329.10;127748;1286;115300;-69
2023/05/03 20:46:45;;;;;;;;;;;;;;;;;;;;;
2023/05/03 20:50:42;;;;;;;;;;;;;;;;;;;;;
2023/05/03 20:54:39;;;;;;;39.40;23.50;;;;;;;6.71;57.58;101330.68;125325;1304;115030;-72
2023/05/03 20:58:38;;;;;;;42.40;23.40;;;;;;;6.61;58.16;101328.90;124599;1313;114911;-70
2023/05/03 21:02:20;;;;;;;35.90;21.50;;;;;;;6.51;58.40;101332.23;124150;1316;128558;-68
2023/05/03 21:06:11;;;;;;;34.60;21.00;;;;;;;6.43;58.65;101334.52;123869;1322;115734;-70
2023/05/03 21:14:20;;;;;;;;;;;;;;;;;;;;;
2023/05/03 21:18:21;;;;;;;28.70;17.90;;;;;;;6.17;59.33;101325.85;127268;1303;128033;-71
2023/05/03 21:22:16;;;;;;;25.40;16.70;;;;;;;6.08;59.45;101325.44;126800;1292;115397;-67
2023/05/03 21:25:49;;;;;;;36.20;19.00;;;;;;;6.01;59.85;101321.98;122940;1315;5481234;-71
2023/05/03 21:29:51;;;;;;;30.10;17.10;;;;;;;5.93;59.98;101323.84;125539;1304;114804;-67
2023/05/03 21:33:52;;;;;;;30.50;19.10;;;;;;;5.85;60.22;101320.59;124672;1314;114890;-72
2023/05/03 21:41:49;;;;;;;;;;;;;;;;;;;;;
2023/05/03 21:45:53;;;;;;;57.20;28.10;;;;;;;5.65;61.23;101325.27;128888;1285;128509;-70
2023/05/03 21:49:45;;;;;;;29.00;16.60;;;;;;;5.59;61.19;101323.56;127608;1286;115341;-70
2023/05/03 21:53:42;;;;;;;;;;;;;;;;;;;;;
2023/05/03 21:57:44;;;;;;;37.00;20.90;;;;;;;5.48;61.75;101320.16;121689;1305;114998;-76
2023/05/03 22:05:52;;;;;;;;;;;;;;;;;;;;;
2023/05/03 22:09:42;;;;;;;33.70;22.10;;;;;;;5.32;62.05;101325.13;128610;1296;128769;-70
2023/05/03 22:13:42;;;;;;;;;;;;;;;;;;;;;
2023/05/03 22:17:46;;;;;;;35.30;20.80;;;;;;;5.20;62.76;101323.30;127237;1292;114934;-69
2023/05/03 22:21:42;;;;;;;31.70;20.80;;;;;;;5.14;62.84;101327.10;122797;1306;114772;-70
2023/05/03 22:25:43;;;;;;;35.50;21.60;;;;;;;5.08;63.19;101322.90;125864;1296;114893;-70
2023/05/03 22:29:37;;;;;;;29.60;19.40;;;;;;;5.02;63.50;101319.08;125019;1319;114779;-67